Time;durP1;ratioP1;P1;durP2;ratioP2;P2;SDS_P1;SDS_P2;PMS_P1;PMS_P2;Temp;Humidity;BMP_temperature;BMP_pressure;BME280_temperature;BME280_humidity;BME280_pressure;Samples;Min_cycle;Max_cycle;Signal;HPM_P1;HPM_P2
2023/11/02 00:00:36;;;;;;;105.70;71.55;;;20.70;57.00;;;;;;5040179;28;20025;-65
2023/11/02 00:03:06;;;;;;;108.78;75.53;;;20.70;57.00;;;;;;5040193;28;20025;-64
2023/11/02 00:06:19;;;;;;;107.53;75.97;;;20.70;57.00;;;;;;5039472;28;20037;-66
2023/11/02 00:09:04;;;;;;;108.13;74.10;;;20.70;57.00;;;;;;5040895;28;20122;-67
2023/11/02 00:11:50;;;;;;;103.20;71.78;;;20.70;57.00;;;;;;5037719;28;20836;-68
2023/11/02 00:14:17;;;;;;;104.45;71.25;;;20.70;57.00;;;;;;5038885;28;20026;-67
2023/11/02 00:16:43;;;;;;;99.05;70.35;;;20.70;57.00;;;;;;5040720;28;20028;-68
2023/11/02 00:19:31;;;;;;;103.20;71.30;;;20.70;57.00;;;;;;5039901;28;20033;-67
2023/11/02 00:22:07;;;;;;;105.15;72.38;;;20.70;57.00;;;;;;5041219;28;20111;-67
2023/11/02 00:24:40;;;;;;;104.97;70.80;;;20.70;57.00;;;;;;5040240;28;20021;-67
2023/11/02 00:27:06;;;;;;;101.47;70.53;;;20.70;57.00;;;;;;5037782;28;20056;-67
2023/11/02 00:29:32;;;;;;;100.97;70.80;;;20.70;57.00;;;;;;5041372;28;20114;-68
2023/11/02 00:31:57;;;;;;;98.55;69.60;;;20.70;57.00;;;;;;5039059;28;20132;-66
2023/11/02 00:34:24;;;;;;;99.32;69.85;;;20.70;57.00;;;;;;5036217;28;20060;-67
2023/11/02 00:36:49;;;;;;;98.50;68.47;;;20.70;57.00;;;;;;5040588;28;20029;-67
2023/11/02 00:39:15;;;;;;;99.80;68.72;;;20.70;57.00;;;;;;5037822;28;20032;-68
2023/11/02 00:41:41;;;;;;;93.82;67.78;;;20.60;57.00;;;;;;5038252;28;20036;-68
2023/11/02 00:44:07;;;;;;;97.47;69.30;;;20.60;57.00;;;;;;5038293;28;20026;-68
2023/11/02 00:46:34;;;;;;;95.63;66.72;;;20.60;57.00;;;;;;5038722;28;20112;-68
2023/11/02 00:49:00;;;;;;;95.05;66.95;;;20.60;57.00;;;;;;5039519;28;20025;-68
2023/11/02 00:51:30;;;;;;;96.60;67.07;;;20.60;57.00;;;;;;5037507;28;20549;-67
2023/11/02 00:54:06;;;;;;;93.82;65.13;;;20.60;57.00;;;;;;5037541;28;20034;-68
2023/11/02 00:56:36;;;;;;;95.93;67.70;;;20.60;57.00;;;;;;5036781;28;20045;-68
2023/11/02 00:59:04;;;;;;;94.90;66.10;;;20.60;57.00;;;;;;5037732;28;20981;-67
2023/11/02 01:01:31;;;;;;;89.40;61.05;;;20.60;57.00;;;;;;5038602;28;20029;-67
2023/11/02 01:04:51;;;;;;;88.38;63.35;;;20.60;57.00;;;;;;5039606;28;20451;-67
2023/11/02 01:07:17;;;;;;;92.65;62.42;;;20.60;57.00;;;;;;5036296;28;20118;-67
2023/11/02 01:09:45;;;;;;;90.78;63.17;;;20.60;57.50;;;;;;5038073;28;20099;-67
2023/11/02 01:12:31;;;;;;;91.90;62.57;;;20.60;57.00;;;;;;5037947;28;20049;-67
2023/11/02 01:14:57;;;;;;;86.28;61.13;;;20.60;56.90;;;;;;5040414;28;20040;-67
2023/11/02 01:17:30;;;;;;;86.30;60.40;;;20.60;57.00;;;;;;5039421;28;20049;-65
2023/11/02 01:20:05;;;;;;;87.03;60.80;;;20.60;57.00;;;;;;5038736;28;20025;-65
2023/11/02 01:22:34;;;;;;;87.10;61.33;;;20.60;57.00;;;;;;5039051;28;20036;-64
2023/11/02 01:25:07;;;;;;;87.75;61.40;;;20.60;57.00;;;;;;5039305;28;20107;-64
2023/11/02 01:27:33;;;;;;;84.25;58.58;;;20.60;57.00;;;;;;5036053;28;20178;-65
2023/11/02 01:30:09;;;;;;;81.95;59.22;;;20.60;57.00;;;;;;5040158;28;20108;-64
2023/11/02 01:32:35;;;;;;;84.07;59.72;;;20.60;57.00;;;;;;5037117;28;20056;-65
2023/11/02 01:35:08;;;;;;;79.68;57.42;;;20.60;57.00;;;;;;5039323;28;20033;-64
2023/11/02 01:37:34;;;;;;;80.75;58.45;;;20.50;56.90;;;;;;5038441;28;20026;-64
2023/11/02 01:40:28;;;;;;;80.07;57.55;;;20.60;57.00;;;;;;5040554;28;20041;-64
2023/11/02 01:42:55;;;;;;;78.72;56.92;;;20.50;57.00;;;;;;5037534;28;20047;-64
2023/11/02 01:45:26;;;;;;;78.68;55.60;;;20.50;57.00;;;;;;5038385;28;20063;-64
2023/11/02 01:48:11;;;;;;;80.43;57.15;;;20.60;57.00;;;;;;5040048;28;20504;-64
2023/11/02 01:51:05;;;;;;;80.18;57.17;;;20.50;56.90;;;;;;5036109;28;20064;-65
2023/11/02 01:53:53;;;;;;;75.18;53.65;;;20.60;57.00;;;;;;5039698;28;20033;-64
2023/11/02 01:56:30;;;;;;;74.32;54.28;;;20.50;56.90;;;;;;5038633;28;20080;-64
2023/11/02 01:59:02;;;;;;;73.90;53.25;;;20.50;56.90;;;;;;5036454;28;20512;-65
2023/11/02 02:01:46;;;;;;;77.10;54.05;;;20.50;56.90;;;;;;5039497;28;20508;-66
2023/11/02 02:04:21;;;;;;;74.25;53.08;;;20.50;56.90;;;;;;5038034;28;20040;-64
2023/11/02 02:07:17;;;;;;;74.05;52.58;;;20.50;57.00;;;;;;5039390;28;20034;-68
2023/11/02 02:10:01;;;;;;;74.47;52.85;;;20.50;56.90;;;;;;5038148;28;20476;-65
2023/11/02 02:12:49;;;;;;;71.80;52.33;;;20.50;56.90;;;;;;5035077;28;20460;-64
2023/11/02 02:15:26;;;;;;;72.17;52.70;;;20.50;56.90;;;;;;5036812;28;20021;-65
2023/11/02 02:18:21;;;;;;;72.85;50.33;;;20.50;56.90;;;;;;5036973;28;20071;-65
2023/11/02 02:20:57;;;;;;;71.28;51.17;;;20.50;57.00;;;;;;5036470;28;20029;-65
2023/11/02 02:23:36;;;;;;;69.97;49.92;;;20.50;56.90;;;;;;5039696;28;20040;-66
2023/11/02 02:26:33;;;;;;;73.55;51.38;;;20.50;56.90;;;;;;5040742;28;20029;-65
2023/11/02 02:29:32;;;;;;;69.10;50.72;;;20.50;56.90;;;;;;5040885;28;20034;-68
2023/11/02 02:32:16;;;;;;;65.22;49.33;;;20.50;56.90;;;;;;5039355;28;20040;-68
2023/11/02 02:35:12;;;;;;;68.22;49.45;;;20.50;56.90;;;;;;5042024;28;20033;-68
2023/11/02 02:37:52;;;;;;;65.07;49.03;;;20.50;56.90;;;;;;5042093;28;20053;-68
2023/11/02 02:40:31;;;;;;;67.65;49.17;;;20.50;56.90;;;;;;5040224;28;21295;-68
2023/11/02 02:42:59;;;;;;;67.57;49.35;;;20.50;56.90;;;;;;5042310;28;20025;-68
2023/11/02 02:45:27;;;;;;;67.38;47.95;;;20.50;56.90;;;;;;5041839;28;20091;-68
2023/11/02 02:47:56;;;;;;;66.53;48.22;;;20.50;56.90;;;;;;5043355;28;20025;-68
2023/11/02 02:50:26;;;;;;;65.72;48.22;;;20.50;56.90;;;;;;5048274;28;20228;-69
2023/11/02 02:52:56;;;;;;;66.20;47.70;;;20.40;56.90;;;;;;5042833;28;20056;-69
2023/11/02 02:55:23;;;;;;;;;;;20.40;56.90;;;;;;5042095;28;20485;-68
2023/11/02 02:57:52;;;;;;;60.45;44.83;;;20.50;56.90;;;;;;5039960;28;20768;-68
2023/11/02 03:00:21;;;;;;;62.92;46.00;;;20.40;56.90;;;;;;5041109;28;20146;-68
2023/11/02 03:02:49;;;;;;;62.58;46.05;;;20.40;56.90;;;;;;5041624;28;20095;-68
2023/11/02 03:05:17;;;;;;;63.40;45.08;;;20.40;56.90;;;;;;5040303;28;20470;-68
2023/11/02 03:07:47;;;;;;;57.97;43.47;;;20.40;56.90;;;;;;5041718;28;20435;-68
2023/11/02 03:10:15;;;;;;;58.83;44.05;;;20.40;56.90;;;;;;5040301;28;20053;-68
2023/11/02 03:12:42;;;;;;;61.38;44.13;;;20.40;56.90;;;;;;5040712;28;20456;-68
2023/11/02 03:15:11;;;;;;;58.75;44.28;;;20.40;56.90;;;;;;5042175;28;20477;-68
2023/11/02 03:17:49;;;;;;;61.63;44.13;;;20.40;56.90;;;;;;5042504;28;20044;-65
2023/11/02 03:20:16;;;;;;;59.95;43.63;;;20.40;56.80;;;;;;5041274;28;20846;-65
2023/11/02 03:22:42;;;;;;;56.78;42.55;;;20.40;56.80;;;;;;5039443;28;20109;-65
2023/11/02 03:25:39;;;;;;;57.70;42.38;;;20.40;56.80;;;;;;5040828;28;20389;-65
2023/11/02 03:28:24;;;;;;;53.92;40.90;;;20.40;56.80;;;;;;5034767;28;20143;-66
2023/11/02 03:31:08;;;;;;;55.65;41.13;;;20.40;56.90;;;;;;5039929;28;20032;-65
2023/11/02 03:33:57;;;;;;;51.85;40.25;;;20.40;56.80;;;;;;5040360;28;20030;-66
2023/11/02 03:36:35;;;;;;;56.20;40.72;;;20.40;56.80;;;;;;5040863;28;20540;-66
2023/11/02 03:39:22;;;;;;;51.75;39.63;;;20.40;56.90;;;;;;5041231;28;20052;-67
2023/11/02 03:42:13;;;;;;;53.22;39.63;;;20.40;56.90;;;;;;5043074;28;20025;-67
2023/11/02 03:45:20;;;;;;;53.70;40.22;;;20.40;56.90;;;;;;5041325;28;20556;-67
2023/11/02 03:48:04;;;;;;;51.33;38.70;;;20.40;56.80;;;;;;5039912;28;20440;-67
2023/11/02 03:50:39;;;;;;;52.38;38.50;;;20.40;56.80;;;;;;5056807;28;20565;-67
2023/11/02 03:53:26;;;;;;;53.03;39.03;;;20.30;56.80;;;;;;5040119;28;20064;-67
2023/11/02 03:56:10;;;;;;;53.75;38.78;;;20.40;56.80;;;;;;5041536;28;20528;-67
2023/11/02 03:58:55;;;;;;;49.67;38.00;;;20.40;56.80;;;;;;5038406;28;20546;-67
2023/11/02 04:01:44;;;;;;;51.78;37.50;;;20.40;56.80;;;;;;5041576;28;20501;-67
2023/11/02 04:04:15;;;;;;;49.75;37.53;;;20.40;56.80;;;;;;5040048;28;20060;-67
2023/11/02 04:07:06;;;;;;;51.38;37.78;;;20.40;56.80;;;;;;5038623;28;20083;-67
2023/11/02 04:09:43;;;;;;;48.63;37.10;;;20.40;56.80;;;;;;5035688;28;20045;-67
2023/11/02 04:12:37;;;;;;;48.58;36.65;;;20.40;56.80;;;;;;5038945;28;20385;-67
2023/11/02 04:15:05;;;;;;;48.33;36.40;;;20.30;56.80;;;;;;5038301;28;20021;-67
2023/11/02 04:17:31;;;;;;;47.08;36.60;;;20.30;56.70;;;;;;5042299;28;20029;-67
2023/11/02 04:19:58;;;;;;;49.45;36.78;;;20.30;56.80;;;;;;5040098;28;20044;-67
2023/11/02 04:22:23;;;;;;;47.22;35.47;;;20.30;56.80;;;;;;5038572;28;20954;-67
2023/11/02 04:24:50;;;;;;;45.75;34.35;;;20.30;56.80;;;;;;5039345;28;20037;-67
2023/11/02 04:27:15;;;;;;;46.28;34.42;;;20.30;56.80;;;;;;5039904;28;20511;-67
2023/11/02 04:29:41;;;;;;;44.20;34.30;;;20.30;56.80;;;;;;5036992;28;20029;-67
2023/11/02 04:32:07;;;;;;;42.53;33.33;;;20.30;56.80;;;;;;5040199;28;20029;-67
2023/11/02 04:34:32;;;;;;;43.63;33.47;;;20.30;56.80;;;;;;5039461;28;20079;-67
2023/11/02 04:36:58;;;;;;;41.60;31.70;;;20.30;56.80;;;;;;5039380;28;20538;-67
2023/11/02 04:39:24;;;;;;;43.05;33.08;;;20.30;56.80;;;;;;5038128;28;20547;-67
2023/11/02 04:41:50;;;;;;;42.95;32.75;;;20.30;56.80;;;;;;5038033;28;20029;-67
2023/11/02 04:44:17;;;;;;;39.92;31.63;;;20.30;56.80;;;;;;5037788;28;20028;-67
2023/11/02 04:46:42;;;;;;;40.90;31.52;;;20.30;56.80;;;;;;5040105;28;20061;-67
2023/11/02 04:49:08;;;;;;;42.20;32.58;;;20.30;57.30;;;;;;5039220;28;20548;-67
2023/11/02 04:51:34;;;;;;;42.28;32.60;;;20.30;56.80;;;;;;5039436;28;20035;-67
2023/11/02 04:54:00;;;;;;;42.67;33.15;;;20.30;56.80;;;;;;5038588;28;20113;-67
2023/11/02 04:56:26;;;;;;;39.00;30.73;;;20.30;56.80;;;;;;5038982;28;20111;-67
2023/11/02 04:58:51;;;;;;;41.72;31.83;;;20.30;56.80;;;;;;5038904;28;20021;-67
2023/11/02 05:01:17;;;;;;;42.92;32.30;;;20.30;56.80;;;;;;5038031;28;20035;-67
2023/11/02 05:03:42;;;;;;;37.92;30.00;;;20.30;56.80;;;;;;5038849;28;20029;-66
2023/11/02 05:06:08;;;;;;;40.20;31.48;;;20.30;57.30;;;;;;5040616;28;20044;-67
2023/11/02 05:08:35;;;;;;;39.03;30.25;;;20.30;56.80;;;;;;5038724;28;20105;-67
2023/11/02 05:11:01;;;;;;;38.78;30.27;;;20.30;56.80;;;;;;5040109;28;20026;-67
2023/11/02 05:13:26;;;;;;;38.90;29.63;;;20.30;56.80;;;;;;5040210;28;20106;-67
2023/11/02 05:15:55;;;;;;;41.30;30.23;;;20.30;56.80;;;;;;5038163;28;20384;-67
2023/11/02 05:18:21;;;;;;;40.97;31.95;;;20.30;56.80;;;;;;5038035;28;20021;-67
2023/11/02 05:20:47;;;;;;;36.50;29.35;;;20.30;56.80;;;;;;5037044;28;20037;-67
2023/11/02 05:23:12;;;;;;;37.45;29.58;;;20.30;56.80;;;;;;5036196;28;20079;-67
2023/11/02 05:25:38;;;;;;;37.42;28.92;;;20.30;56.80;;;;;;5036472;28;20460;-67
2023/11/02 05:28:04;;;;;;;35.63;28.58;;;20.20;56.70;;;;;;5046186;28;20120;-68
2023/11/02 05:30:30;;;;;;;35.78;28.45;;;20.30;56.80;;;;;;5038769;28;20055;-67
2023/11/02 05:32:55;;;;;;;37.53;28.65;;;20.20;56.70;;;;;;5036649;28;20017;-67
2023/11/02 05:35:21;;;;;;;35.92;28.38;;;20.30;56.80;;;;;;5038661;28;20470;-67
2023/11/02 05:37:46;;;;;;;35.42;27.55;;;20.20;56.70;;;;;;5041029;28;20029;-67
2023/11/02 05:40:12;;;;;;;33.47;27.05;;;20.30;56.80;;;;;;5039255;28;20029;-68
2023/11/02 05:42:38;;;;;;;34.25;28.05;;;20.20;56.70;;;;;;5038425;28;20584;-68
2023/11/02 05:45:04;;;;;;;35.13;27.13;;;20.20;56.80;;;;;;5036352;28;20075;-68
2023/11/02 05:47:30;;;;;;;34.40;26.92;;;20.20;56.70;;;;;;5038198;28;20083;-68
2023/11/02 05:49:55;;;;;;;33.95;26.42;;;20.20;56.80;;;;;;5039310;28;20445;-68
2023/11/02 05:52:21;;;;;;;33.00;27.00;;;20.20;56.80;;;;;;5038453;28;20024;-68
2023/11/02 05:54:46;;;;;;;33.08;26.83;;;20.20;56.80;;;;;;5039891;28;20025;-68
2023/11/02 05:57:13;;;;;;;33.60;26.60;;;20.20;56.80;;;;;;5038843;28;20024;-68
2023/11/02 05:59:39;;;;;;;32.40;25.40;;;20.20;56.80;;;;;;5035668;28;20020;-68
2023/11/02 06:02:07;;;;;;;31.20;25.58;;;20.20;56.80;;;;;;5038098;28;20082;-68
2023/11/02 06:04:32;;;;;;;30.92;24.23;;;20.20;56.80;;;;;;5040155;28;20091;-68
2023/11/02 06:06:58;;;;;;;33.47;24.85;;;20.20;56.80;;;;;;5038105;28;20029;-68
2023/11/02 06:09:23;;;;;;;32.38;25.13;;;20.20;56.80;;;;;;5037563;28;20021;-68
2023/11/02 06:11:49;;;;;;;31.15;24.83;;;20.20;56.80;;;;;;5036803;28;20065;-68
2023/11/02 06:14:15;;;;;;;30.85;24.40;;;20.20;56.80;;;;;;5037387;28;20025;-68
2023/11/02 06:16:40;;;;;;;29.65;23.40;;;20.20;56.80;;;;;;5037719;28;20017;-68
2023/11/02 06:19:06;;;;;;;31.17;24.48;;;20.20;56.80;;;;;;5039771;28;20029;-68
2023/11/02 06:21:32;;;;;;;29.52;23.73;;;20.20;56.80;;;;;;5035960;28;20072;-68
2023/11/02 06:23:57;;;;;;;30.38;23.20;;;20.20;56.80;;;;;;5038067;28;20029;-68
2023/11/02 06:26:23;;;;;;;28.58;22.52;;;20.20;56.80;;;;;;5038233;28;20481;-68
2023/11/02 06:28:48;;;;;;;27.35;22.30;;;20.20;56.80;;;;;;5037663;28;20056;-68
2023/11/02 06:31:14;;;;;;;30.02;23.08;;;20.20;56.80;;;;;;5036279;28;20038;-68
2023/11/02 06:33:40;;;;;;;26.30;21.30;;;20.20;56.80;;;;;;5038742;28;20025;-68
2023/11/02 06:36:06;;;;;;;27.45;21.70;;;20.20;56.90;;;;;;5038493;28;20029;-68
2023/11/02 06:38:32;;;;;;;28.33;22.00;;;20.20;56.80;;;;;;5038396;28;20036;-67
2023/11/02 06:40:59;;;;;;;26.70;21.38;;;20.20;56.90;;;;;;5038127;28;20025;-68
2023/11/02 06:43:26;;;;;;;25.48;20.88;;;20.20;56.90;;;;;;5037259;28;20091;-68
2023/11/02 06:45:52;;;;;;;27.35;21.50;;;20.20;56.90;;;;;;5036758;28;20037;-68
2023/11/02 06:48:18;;;;;;;25.90;20.80;;;20.20;56.90;;;;;;5036552;28;20045;-68
2023/11/02 06:50:46;;;;;;;26.60;21.02;;;20.10;56.80;;;;;;5038852;28;20029;-65
2023/11/02 06:53:12;;;;;;;25.70;20.13;;;20.20;56.90;;;;;;5036278;28;20033;-65
2023/11/02 06:55:40;;;;;;;24.55;19.45;;;20.20;56.90;;;;;;5036951;28;20310;-65
2023/11/02 06:58:05;;;;;;;23.60;19.63;;;20.20;56.90;;;;;;5037309;28;20032;-65
2023/11/02 07:00:31;;;;;;;22.90;19.45;;;20.20;56.90;;;;;;5035833;28;20473;-65
2023/11/02 07:02:57;;;;;;;24.52;19.42;;;20.20;56.90;;;;;;5038580;28;20036;-65
2023/11/02 07:05:23;;;;;;;24.58;19.38;;;20.20;56.90;;;;;;5036507;28;20034;-65
2023/11/02 07:07:49;;;;;;;24.63;19.25;;;20.20;56.90;;;;;;5039514;28;20456;-65
2023/11/02 07:10:15;;;;;;;23.52;18.58;;;20.20;56.90;;;;;;5038485;28;20033;-64
2023/11/02 07:12:41;;;;;;;23.50;18.55;;;20.10;56.80;;;;;;5037690;28;20049;-65
2023/11/02 07:15:07;;;;;;;23.35;18.00;;;20.20;56.90;;;;;;5039734;28;20057;-65
2023/11/02 07:17:33;;;;;;;23.35;18.17;;;20.10;56.90;;;;;;5041518;28;20025;-66
2023/11/02 07:19:58;;;;;;;23.17;18.08;;;20.20;56.90;;;;;;5041077;28;20032;-65
2023/11/02 07:22:24;;;;;;;24.23;18.92;;;20.10;56.90;;;;;;5042355;28;20417;-66
2023/11/02 07:24:49;;;;;;;23.50;18.73;;;20.10;56.80;;;;;;5039542;28;20037;-65
2023/11/02 07:27:15;;;;;;;22.88;17.95;;;20.10;56.80;;;;;;5042290;28;20024;-66
2023/11/02 07:29:41;;;;;;;23.85;18.35;;;20.10;56.90;;;;;;5041295;28;20434;-66
2023/11/02 07:32:09;;;;;;;21.08;17.38;;;20.10;56.90;;;;;;5038225;28;20434;-65
2023/11/02 07:34:35;;;;;;;22.10;17.67;;;20.10;56.90;;;;;;5041311;28;20017;-65
2023/11/02 07:37:01;;;;;;;22.63;17.83;;;20.10;56.90;;;;;;5042295;28;20021;-64
2023/11/02 07:39:27;;;;;;;22.92;17.60;;;20.10;56.90;;;;;;5041998;28;20070;-65
2023/11/02 07:41:53;;;;;;;21.08;16.75;;;20.10;56.90;;;;;;5040913;28;20025;-65
2023/11/02 07:44:19;;;;;;;21.60;16.75;;;20.20;56.90;;;;;;5039057;28;20028;-65
2023/11/02 07:46:44;;;;;;;20.65;16.95;;;20.10;56.90;;;;;;5038469;28;20032;-65
2023/11/02 07:49:10;;;;;;;20.40;16.17;;;20.10;56.90;;;;;;5039764;28;20536;-65
2023/11/02 07:51:35;;;;;;;21.40;16.33;;;20.10;56.90;;;;;;5041121;28;20392;-65
2023/11/02 07:54:04;;;;;;;20.27;16.30;;;20.10;56.90;;;;;;5040878;28;20037;-65
2023/11/02 07:56:29;;;;;;;20.95;16.35;;;20.10;56.90;;;;;;5040640;28;20055;-65
2023/11/02 07:58:55;;;;;;;19.45;15.73;;;20.10;56.90;;;;;;5040568;28;20421;-68
2023/11/02 08:01:24;;;;;;;20.10;16.23;;;20.10;56.90;;;;;;5038693;28;20096;-67
2023/11/02 08:03:49;;;;;;;19.83;16.23;;;20.10;56.90;;;;;;5039571;28;20041;-67
2023/11/02 08:06:15;;;;;;;19.77;16.52;;;20.10;56.90;;;;;;5039046;28;20037;-67
2023/11/02 08:08:40;;;;;;;19.63;16.23;;;20.10;56.90;;;;;;5040928;28;20406;-67
2023/11/02 08:11:06;;;;;;;17.48;14.98;;;20.10;56.90;;;;;;5038396;28;20028;-67
2023/11/02 08:13:31;;;;;;;19.33;15.45;;;20.10;56.90;;;;;;5038678;28;20057;-67
2023/11/02 08:15:57;;;;;;;17.35;14.65;;;20.10;56.90;;;;;;5039876;28;20469;-67
2023/11/02 08:18:23;;;;;;;18.70;15.70;;;20.10;56.90;;;;;;5041863;28;20021;-67
2023/11/02 08:20:49;;;;;;;18.73;14.27;;;20.10;56.90;;;;;;5040254;28;20044;-66
2023/11/02 08:23:15;;;;;;;17.98;15.07;;;20.10;56.90;;;;;;5039998;28;20032;-67
2023/11/02 08:25:41;;;;;;;18.63;14.32;;;20.10;56.90;;;;;;5039486;28;20330;-67
2023/11/02 08:28:07;;;;;;;17.83;14.02;;;20.10;56.90;;;;;;5039198;28;20028;-67
2023/11/02 08:30:33;;;;;;;18.80;15.13;;;20.10;56.90;;;;;;5039000;28;20521;-67
2023/11/02 08:32:58;;;;;;;18.33;14.73;;;20.10;56.90;;;;;;5040030;28;20021;-67
2023/11/02 08:35:24;;;;;;;18.08;14.57;;;20.10;56.90;;;;;;5041258;28;20097;-68
2023/11/02 08:37:51;;;;;;;18.08;14.75;;;20.10;56.90;;;;;;5040208;28;20021;-67
2023/11/02 08:40:18;;;;;;;17.15;13.85;;;20.10;56.90;;;;;;5040343;28;20533;-68
2023/11/02 08:42:44;;;;;;;17.70;14.73;;;20.10;56.90;;;;;;5039569;28;20095;-67
2023/11/02 08:45:13;;;;;;;17.50;14.05;;;20.10;56.90;;;;;;5038984;28;20022;-67
2023/11/02 08:47:39;;;;;;;16.60;13.75;;;20.10;56.90;;;;;;5038316;28;20033;-67
2023/11/02 08:50:05;;;;;;;15.65;13.25;;;20.10;56.90;;;;;;5038400;28;20037;-66
2023/11/02 08:52:31;;;;;;;17.15;13.45;;;20.10;56.90;;;;;;5037934;28;20488;-67
2023/11/02 08:54:56;;;;;;;15.15;12.98;;;20.10;57.40;;;;;;5037865;28;20037;-68
2023/11/02 08:57:23;;;;;;;16.55;13.80;;;20.10;56.90;;;;;;5039237;28;20839;-67
2023/11/02 08:59:49;;;;;;;17.90;13.82;;;20.10;56.90;;;;;;5040220;28;20022;-67
2023/11/02 09:02:15;;;;;;;15.18;12.98;;;20.10;57.00;;;;;;5039977;28;20387;-67
2023/11/02 09:04:40;;;;;;;16.80;13.02;;;20.10;56.90;;;;;;5038063;28;20170;-67
2023/11/02 09:07:06;;;;;;;16.65;13.50;;;20.10;56.90;;;;;;5039229;28;20158;-66
2023/11/02 09:09:32;;;;;;;14.77;12.43;;;20.10;56.90;;;;;;5038024;28;20408;-67
2023/11/02 09:11:57;;;;;;;15.55;12.85;;;20.10;56.90;;;;;;5038856;28;20032;-67
2023/11/02 09:14:23;;;;;;;15.27;12.80;;;20.10;56.90;;;;;;5038930;28;20057;-67
2023/11/02 09:16:49;;;;;;;15.07;12.88;;;20.00;56.90;;;;;;5037109;28;20033;-67
2023/11/02 09:19:14;;;;;;;15.10;12.32;;;20.00;56.90;;;;;;5037797;28;20430;-67
2023/11/02 09:21:42;;;;;;;14.27;12.32;;;20.00;56.90;;;;;;5038875;28;20107;-67
2023/11/02 09:24:08;;;;;;;14.73;11.98;;;20.10;56.90;;;;;;5039293;28;20630;-67
2023/11/02 09:26:35;;;;;;;13.88;11.85;;;20.10;56.90;;;;;;5037173;28;20120;-67
2023/11/02 09:29:01;;;;;;;14.55;12.10;;;20.00;56.90;;;;;;5040540;28;20451;-67
2023/11/02 09:31:30;;;;;;;14.35;11.75;;;20.00;56.90;;;;;;5038366;28;20109;-68
2023/11/02 09:33:57;;;;;;;15.10;12.13;;;20.00;56.80;;;;;;5039414;28;20028;-68
2023/11/02 09:36:23;;;;;;;14.70;12.20;;;20.10;56.90;;;;;;5037533;28;20040;-68
2023/11/02 09:38:49;;;;;;;14.60;11.95;;;20.00;56.90;;;;;;5036339;28;20044;-68
2023/11/02 09:41:14;;;;;;;13.85;11.45;;;20.10;56.90;;;;;;5038884;28;20033;-68
2023/11/02 09:43:43;;;;;;;14.73;11.75;;;20.00;56.90;;;;;;5039178;28;20090;-68
2023/11/02 09:46:09;;;;;;;13.75;11.10;;;20.00;56.80;;;;;;5038580;28;20591;-68
2023/11/02 09:48:34;;;;;;;14.55;11.63;;;20.10;56.90;;;;;;5036751;28;20034;-68
2023/11/02 09:51:00;;;;;;;14.88;11.13;;;20.00;56.90;;;;;;5037335;28;20428;-68
2023/11/02 09:53:27;;;;;;;15.00;11.50;;;20.10;56.90;;;;;;5038447;28;20501;-68
2023/11/02 09:55:54;;;;;;;13.48;10.95;;;20.00;56.80;;;;;;5038637;28;20051;-68
2023/11/02 09:58:22;;;;;;;13.48;10.70;;;20.00;56.90;;;;;;5040541;28;20021;-68
2023/11/02 10:00:48;;;;;;;13.45;10.82;;;20.00;56.90;;;;;;5036718;28;20373;-69
2023/11/02 10:03:13;;;;;;;12.93;10.40;;;20.00;56.80;;;;;;5037059;28;20042;-68
2023/11/02 10:05:39;;;;;;;12.98;10.77;;;20.00;56.80;;;;;;5039518;28;20591;-68
2023/11/02 10:08:05;;;;;;;12.63;10.07;;;20.00;56.90;;;;;;5038565;28;20030;-68
2023/11/02 10:10:32;;;;;;;13.45;10.95;;;20.00;56.80;;;;;;5039170;28;20037;-68
2023/11/02 10:13:02;;;;;;;12.27;10.40;;;20.00;56.90;;;;;;5040045;28;20029;-68
2023/11/02 10:15:28;;;;;;;;;;;20.00;56.90;;;;;;5038515;28;20579;-68
2023/11/02 10:17:54;;;;;;;12.27;10.07;;;20.00;56.90;;;;;;5035213;28;19924;-68
2023/11/02 10:20:20;;;;;;;12.00;10.02;;;20.00;56.80;;;;;;5038982;28;20385;-66
2023/11/02 10:23:03;;;;;;;12.88;10.40;;;20.00;56.80;;;;;;5038037;28;20482;-66
2023/11/02 10:25:29;;;;;;;12.32;9.80;;;20.00;56.90;;;;;;5039593;28;20485;-66
2023/11/02 10:27:56;;;;;;;11.68;10.18;;;20.00;56.90;;;;;;5039283;28;20117;-65
2023/11/02 10:30:23;;;;;;;10.85;9.18;;;20.00;56.80;;;;;;5037069;28;20094;-66
2023/11/02 10:32:49;;;;;;;12.50;9.88;;;20.00;56.80;;;;;;5036733;28;20053;-65
2023/11/02 10:35:15;;;;;;;12.30;9.77;;;20.00;56.90;;;;;;5038367;28;20456;-65
2023/11/02 10:37:41;;;;;;;11.02;9.57;;;20.00;56.90;;;;;;5038662;28;20018;-65
2023/11/02 10:40:08;;;;;;;11.82;9.63;;;20.00;56.90;;;;;;5036711;28;20109;-66
2023/11/02 10:42:35;;;;;;;10.63;9.32;;;20.00;56.90;;;;;;5036680;28;20432;-66
2023/11/02 10:45:05;;;;;;;11.45;8.90;;;20.00;56.90;;;;;;5036203;28;20033;-67
2023/11/02 10:47:32;;;;;;;11.32;9.52;;;20.00;56.90;;;;;;5040152;28;20025;-67
2023/11/02 10:49:59;;;;;;;11.52;9.40;;;20.00;56.90;;;;;;5042455;28;20025;-65
2023/11/02 10:52:33;;;;;;;11.52;9.20;;;20.00;56.90;;;;;;5041931;28;20480;-65
2023/11/02 10:55:18;;;;;;;11.48;9.50;;;20.00;56.90;;;;;;5042281;28;20116;-64
2023/11/02 10:57:47;;;;;;;11.57;9.27;;;20.00;56.90;;;;;;5041079;28;20029;-65
2023/11/02 11:00:15;;;;;;;11.73;9.52;;;20.00;56.90;;;;;;5038735;28;20385;-65
2023/11/02 11:02:44;;;;;;;11.40;9.05;;;20.00;56.90;;;;;;5042219;28;20485;-65
2023/11/02 11:05:10;;;;;;;10.77;9.02;;;20.00;56.90;;;;;;5040206;28;20745;-64
2023/11/02 11:07:37;;;;;;;11.45;9.13;;;20.00;56.90;;;;;;5040939;28;20032;-65
2023/11/02 11:10:03;;;;;;;10.52;8.63;;;20.00;57.40;;;;;;5041261;28;20543;-65
2023/11/02 11:12:30;;;;;;;10.45;8.80;;;20.00;56.90;;;;;;5042279;28;20556;-64
2023/11/02 11:14:58;;;;;;;10.45;8.45;;;20.00;56.90;;;;;;5038975;28;20101;-64
2023/11/02 11:17:24;;;;;;;9.45;7.95;;;20.00;56.90;;;;;;5038965;28;20013;-64
2023/11/02 11:19:50;;;;;;;9.90;8.27;;;20.00;56.90;;;;;;5041043;28;20033;-65
2023/11/02 11:22:24;;;;;;;10.05;8.20;;;20.00;56.90;;;;;;5041672;28;20822;-65
2023/11/02 11:24:55;;;;;;;9.85;8.10;;;20.00;56.90;;;;;;5042694;28;20033;-65
2023/11/02 11:27:34;;;;;;;9.40;7.95;;;20.00;56.90;;;;;;5039790;28;20041;-64
2023/11/02 11:30:03;;;;;;;9.10;7.38;;;20.00;56.90;;;;;;5040994;28;20030;-67
2023/11/02 11:32:35;;;;;;;8.82;7.43;;;20.00;56.90;;;;;;5040091;28;20484;-67
2023/11/02 11:35:04;;;;;;;9.05;7.03;;;20.00;56.90;;;;;;5039008;28;20022;-67
2023/11/02 11:40:32;;;;;;;8.80;7.00;;;20.00;57.00;;;;;;5044748;28;20361;-67
2023/11/02 11:43:15;;;;;;;9.27;7.53;;;20.00;56.90;;;;;;5040038;28;20029;-67
2023/11/02 11:45:45;;;;;;;8.93;7.63;;;20.00;56.90;;;;;;5041177;28;20518;-67
2023/11/02 11:48:12;;;;;;;10.23;7.38;;;20.00;56.90;;;;;;5038316;28;20496;-67
2023/11/02 11:50:45;;;;;;;9.68;7.82;;;20.00;56.90;;;;;;5039906;28;20504;-69
2023/11/02 11:53:13;;;;;;;9.07;7.43;;;19.90;56.90;;;;;;5040760;28;20025;-70
2023/11/02 11:55:39;;;;;;;9.02;7.35;;;20.00;56.90;;;;;;5038154;28;20276;-69
2023/11/02 11:58:09;;;;;;;9.98;7.30;;;20.00;57.00;;;;;;5039968;28;20496;-69
2023/11/02 12:00:50;;;;;;;;;;;19.90;56.90;;;;;;5040845;28;20033;-68
2023/11/02 12:03:37;;;;;;;8.98;7.40;;;19.90;56.90;;;;;;5038749;28;19905;-69
2023/11/02 12:06:04;;;;;;;9.35;7.43;;;19.90;57.00;;;;;;5040921;28;20041;-70
2023/11/02 12:08:31;;;;;;;8.95;7.30;;;19.90;56.90;;;;;;5040412;28;20033;-68
2023/11/02 12:10:58;;;;;;;8.93;6.90;;;20.00;57.00;;;;;;5041182;28;20493;-69
2023/11/02 12:13:25;;;;;;;8.75;7.32;;;19.90;57.00;;;;;;5040456;28;20045;-69
2023/11/02 12:15:58;;;;;;;8.23;6.50;;;20.00;57.00;;;;;;5040881;28;20017;-69
2023/11/02 12:18:27;;;;;;;9.00;7.28;;;20.00;57.00;;;;;;5040368;28;20035;-70
2023/11/02 12:20:53;;;;;;;8.68;6.50;;;20.00;57.00;;;;;;5039781;28;20029;-69
2023/11/02 12:23:20;;;;;;;8.27;6.80;;;19.90;57.00;;;;;;5038370;28;20037;-69
2023/11/02 12:25:50;;;;;;;9.15;7.13;;;20.00;57.10;;;;;;5039898;28;20025;-70
2023/11/02 12:28:16;;;;;;;8.18;6.82;;;19.90;57.00;;;;;;5038879;28;20390;-68
2023/11/02 12:30:45;;;;;;;8.35;6.72;;;20.00;57.00;;;;;;5040263;28;20033;-69
2023/11/02 12:33:19;;;;;;;7.90;6.55;;;20.00;57.10;;;;;;5040641;28;20032;-68
2023/11/02 12:35:59;;;;;;;8.40;6.55;;;19.90;57.00;;;;;;5039329;28;20504;-69
2023/11/02 12:38:57;;;;;;;;;;;19.90;57.10;;;;;;5039881;28;20022;-70
2023/11/02 12:41:23;;;;;;;7.47;6.20;;;19.90;57.00;;;;;;5043385;28;19948;-69
2023/11/02 12:43:48;;;;;;;7.88;6.55;;;20.00;57.10;;;;;;5039906;28;20056;-69
2023/11/02 12:46:14;;;;;;;9.18;7.22;;;20.00;57.10;;;;;;5039797;28;20465;-69
2023/11/02 12:48:41;;;;;;;7.55;6.32;;;20.00;57.10;;;;;;5037920;28;20025;-69